createdAt,value
2018-02-08T00:01:58.901Z,15.07
2018-02-08T00:04:26.628Z,14.70
2018-02-08T00:06:54.251Z,13.60
2018-02-08T00:09:21.672Z,14.43
2018-02-08T00:11:49.234Z,12.93
2018-02-08T00:14:16.694Z,14.00
2018-02-08T00:16:44.248Z,13.90
2018-02-08T00:19:11.729Z,14.05
2018-02-08T00:21:39.201Z,14.13
2018-02-08T00:24:07.547Z,13.60
2018-02-08T00:26:34.711Z,13.20
2018-02-08T00:29:02.265Z,13.10
2018-02-08T00:31:31.351Z,12.87
2018-02-08T00:33:58.734Z,13.23
2018-02-08T00:36:26.385Z,11.90
2018-02-08T00:38:53.714Z,11.73
2018-02-08T00:41:21.214Z,12.83
2018-02-08T00:43:48.628Z,11.70
2018-02-08T00:46:15.913Z,12.07
2018-02-08T00:51:10.708Z,11.23
2018-02-08T00:53:38.363Z,11.73
2018-02-08T00:56:05.715Z,12.17
2018-02-08T00:58:33.211Z,10.83
2018-02-08T01:01:00.656Z,10.50
2018-02-08T01:03:28.013Z,10.90
2018-02-08T01:08:22.718Z,11.10
2018-02-08T01:10:50.230Z,10.77
2018-02-08T01:13:17.663Z,11.10
2018-02-08T01:15:44.898Z,10.70
2018-02-08T01:18:12.592Z,9.93
2018-02-08T01:20:39.743Z,9.90
2018-02-08T01:23:07.374Z,9.13
2018-02-08T01:25:34.609Z,9.00
2018-02-08T01:28:01.755Z,9.37
2018-02-08T01:30:29.594Z,10.00
2018-02-08T01:32:56.714Z,9.90
2018-02-08T01:35:24.392Z,9.53
2018-02-08T01:37:51.687Z,8.47
2018-02-08T01:40:19.045Z,8.80
2018-02-08T01:45:13.796Z,9.57
2018-02-08T01:47:41.532Z,8.53
2018-02-08T01:50:08.746Z,8.83
2018-02-08T01:52:36.380Z,9.10
2018-02-08T01:55:03.742Z,8.10
2018-02-08T01:57:32.805Z,8.20
2018-02-08T02:00:00.666Z,7.70
2018-02-08T02:02:28.237Z,7.80
2018-02-08T02:07:23.361Z,8.63
2018-02-08T02:09:50.795Z,8.17
2018-02-08T02:12:18.604Z,8.53
2018-02-08T02:14:45.787Z,7.43
2018-02-08T02:17:13.708Z,7.83
2018-02-08T02:19:41.240Z,7.07
2018-02-08T02:22:08.726Z,7.80
2018-02-08T02:24:36.585Z,8.00
2018-02-08T02:27:03.789Z,7.37
2018-02-08T02:29:31.456Z,6.67
2018-02-08T02:31:58.761Z,7.50
2018-02-08T02:34:26.354Z,6.93
2018-02-08T02:36:53.766Z,7.10
2018-02-08T02:39:21.542Z,6.97
2018-02-08T02:41:48.742Z,6.70
2018-02-08T02:44:16.371Z,6.77
2018-02-08T02:46:43.757Z,7.30
2018-02-08T02:49:11.333Z,6.77
2018-02-08T02:51:38.728Z,6.73
2018-02-08T02:54:06.224Z,6.70
2018-02-08T02:56:33.684Z,6.85
2018-02-08T02:59:01.205Z,6.77
2018-02-08T03:01:28.620Z,6.20
2018-02-08T03:03:55.803Z,6.27
2018-02-08T03:06:23.621Z,5.93
2018-02-08T03:08:51.258Z,6.03
2018-02-08T03:11:18.719Z,6.10
2018-02-08T03:13:46.354Z,6.43
2018-02-08T03:16:13.761Z,5.77
2018-02-08T03:18:41.406Z,6.13
2018-02-08T03:21:08.737Z,6.10
2018-02-08T03:23:36.346Z,5.63
2018-02-08T03:26:03.743Z,5.97
2018-02-08T03:28:31.346Z,5.50
2018-02-08T03:30:58.721Z,6.30
2018-02-08T03:33:26.340Z,5.60
2018-02-08T03:35:53.708Z,5.27
2018-02-08T03:38:21.156Z,5.80
2018-02-08T03:43:15.704Z,5.40
2018-02-08T03:45:43.245Z,4.80
2018-02-08T03:50:38.244Z,5.30
2018-02-08T03:55:33.194Z,5.33
2018-02-08T04:00:28.284Z,4.80
2018-02-08T04:02:55.736Z,5.25
2018-02-08T04:05:23.366Z,4.53
2018-02-08T04:07:50.777Z,4.63
2018-02-08T04:10:18.459Z,3.83
2018-02-08T04:12:45.768Z,4.37
2018-02-08T04:15:13.566Z,4.53
2018-02-08T04:17:40.748Z,4.43
2018-02-08T04:20:08.433Z,4.33
2018-02-08T04:22:35.735Z,4.60
2018-02-08T04:25:03.358Z,4.10
2018-02-08T04:27:30.701Z,4.00
2018-02-08T04:29:58.070Z,4.20
2018-02-08T04:34:52.752Z,4.47
2018-02-08T04:37:20.622Z,4.30
2018-02-08T04:39:47.937Z,4.50
2018-02-08T04:44:42.759Z,4.43
2018-02-08T04:47:10.362Z,3.90
2018-02-08T04:49:37.725Z,3.67
2018-02-08T04:52:05.257Z,3.70
2018-02-08T04:54:32.689Z,3.40
2018-02-08T04:57:00.250Z,4.23
2018-02-08T04:59:27.627Z,4.10
2018-02-08T05:01:54.803Z,3.90
2018-02-08T05:04:22.351Z,4.07
2018-02-08T05:06:49.734Z,3.70
2018-02-08T05:09:17.253Z,3.87
2018-02-08T05:11:44.716Z,3.30
2018-02-08T05:14:12.344Z,4.13
2018-02-08T05:16:39.766Z,3.10
2018-02-08T05:19:07.415Z,4.10
2018-02-08T05:21:34.738Z,3.90
2018-02-08T05:24:02.418Z,4.00
2018-02-08T05:26:29.743Z,3.60
2018-02-08T05:28:57.394Z,4.17
2018-02-08T05:31:24.703Z,4.97
2018-02-08T05:33:52.203Z,7.47
2018-02-08T05:36:19.702Z,6.03
2018-02-08T05:38:47.371Z,6.77
2018-02-08T05:41:14.733Z,6.23
2018-02-08T05:43:42.264Z,5.43
2018-02-08T05:46:09.701Z,5.90
2018-02-08T05:48:37.372Z,5.50
2018-02-08T05:51:04.720Z,7.80
2018-02-08T05:53:32.576Z,11.33
2018-02-08T05:55:59.774Z,9.63
2018-02-08T05:58:27.395Z,8.57
2018-02-08T06:00:54.751Z,9.77
2018-02-08T06:03:22.313Z,8.10
2018-02-08T06:05:49.704Z,7.73
2018-02-08T06:08:17.340Z,7.67
2018-02-08T06:10:44.692Z,6.90
2018-02-08T06:13:12.346Z,8.03
2018-02-08T06:15:39.702Z,8.10
2018-02-08T06:18:07.348Z,20.87
2018-02-08T06:20:34.696Z,35.63
2018-02-08T06:23:02.261Z,40.13
2018-02-08T06:25:29.757Z,42.57
2018-02-08T06:27:57.366Z,35.57
2018-02-08T06:30:24.743Z,28.77
2018-02-08T06:32:52.356Z,24.77
2018-02-08T06:35:19.714Z,24.07
2018-02-08T06:37:47.336Z,20.87
2018-02-08T06:40:14.723Z,20.33
2018-02-08T06:42:42.392Z,18.80
2018-02-08T06:45:09.782Z,18.90
2018-02-08T06:47:37.680Z,18.57
2018-02-08T06:50:05.372Z,17.53
2018-02-08T06:52:32.771Z,16.30
2018-02-08T06:55:00.650Z,17.43
2018-02-08T06:57:28.335Z,16.70
2018-02-08T06:59:55.789Z,15.90
2018-02-08T07:02:23.688Z,15.83
2018-02-08T07:04:51.399Z,15.30
2018-02-08T07:07:18.799Z,14.43
2018-02-08T07:09:46.686Z,15.47
2018-02-08T07:12:14.254Z,14.93
2018-02-08T07:14:41.736Z,13.95
2018-02-08T07:17:09.501Z,14.57
2018-02-08T07:19:36.820Z,13.27
2018-02-08T07:22:04.711Z,13.20
2018-02-08T07:24:32.396Z,14.13
2018-02-08T07:26:59.810Z,13.77
2018-02-08T07:29:27.713Z,14.17
2018-02-08T07:31:55.328Z,12.93
2018-02-08T07:34:22.748Z,13.77
2018-02-08T07:36:50.377Z,13.87
2018-02-08T07:39:17.739Z,13.00
2018-02-08T07:41:45.548Z,11.57
2018-02-08T07:44:12.817Z,12.10
2018-02-08T07:46:40.709Z,11.13
2018-02-08T07:49:08.324Z,12.10
2018-02-08T07:51:35.737Z,11.33
2018-02-08T07:54:03.434Z,12.07
2018-02-08T07:56:30.769Z,10.40
2018-02-08T07:58:58.657Z,11.60
2018-02-08T08:01:26.352Z,10.37
2018-02-08T08:03:53.763Z,10.43
2018-02-08T08:06:21.572Z,11.13
2018-02-08T08:08:48.739Z,10.33
2018-02-08T08:11:16.385Z,10.93
2018-02-08T08:13:43.683Z,10.67
2018-02-08T08:16:11.230Z,10.40
2018-02-08T08:18:38.673Z,10.55
2018-02-08T08:21:06.217Z,10.57
2018-02-08T08:23:33.637Z,11.40
2018-02-08T08:26:00.904Z,12.67
2018-02-08T08:28:28.640Z,11.57
2018-02-08T08:30:56.193Z,11.17
2018-02-08T08:33:23.631Z,15.27
2018-02-08T08:35:50.815Z,11.00
2018-02-08T08:38:18.615Z,12.17
2018-02-08T08:40:45.912Z,12.00
2018-02-08T08:43:13.681Z,9.73
2018-02-08T08:45:40.987Z,10.13
2018-02-08T08:50:35.768Z,10.80
2018-02-08T08:53:03.333Z,9.70
2018-02-08T08:55:30.699Z,10.40
2018-02-08T08:57:58.341Z,10.10
2018-02-08T09:00:25.746Z,11.73
2018-02-08T09:02:53.341Z,10.67
2018-02-08T09:05:20.669Z,10.70
2018-02-08T09:07:48.337Z,11.30
2018-02-08T09:10:15.707Z,10.47
2018-02-08T09:12:43.225Z,9.97
2018-02-08T09:15:10.650Z,10.70
2018-02-08T09:17:38.112Z,10.77
2018-02-08T09:20:05.589Z,9.80
2018-02-08T09:22:32.746Z,10.80
2018-02-08T09:25:00.333Z,11.50
2018-02-08T09:27:27.672Z,10.53
2018-02-08T09:29:55.222Z,10.20
2018-02-08T09:32:22.627Z,9.85
2018-02-08T09:34:49.961Z,9.43
2018-02-08T09:39:44.735Z,9.80
2018-02-08T09:42:12.253Z,9.47
2018-02-08T09:44:39.692Z,8.80
2018-02-08T09:47:07.313Z,8.97
2018-02-08T09:49:34.695Z,8.77
2018-02-08T09:52:02.000Z,8.87
2018-02-08T09:56:56.670Z,8.40
2018-02-08T10:04:08.666Z,8.97
2018-02-08T10:06:36.195Z,8.20
2018-02-08T10:09:03.656Z,8.30
2018-02-08T10:11:30.921Z,8.60
2018-02-08T10:16:25.920Z,7.80
2018-02-08T10:21:20.831Z,7.90
2018-02-08T10:23:48.598Z,8.13
2018-02-08T10:26:15.702Z,7.17
2018-02-08T10:28:43.190Z,7.03
2018-02-08T10:33:37.790Z,7.87
2018-02-08T10:36:05.416Z,7.20
2018-02-08T10:38:32.750Z,8.10
2018-02-08T10:41:00.402Z,6.80
2018-02-08T10:43:27.727Z,7.17
2018-02-08T10:45:55.231Z,7.57
2018-02-08T10:48:22.693Z,6.67
2018-02-08T10:50:50.219Z,6.67
2018-02-08T10:53:17.664Z,6.90
2018-02-08T10:55:45.174Z,7.13
2018-02-08T10:58:12.631Z,7.00
2018-02-08T11:00:39.808Z,6.83
2018-02-08T11:03:07.560Z,7.07
2018-02-08T11:05:34.704Z,7.20
2018-02-08T11:08:02.359Z,6.53
2018-02-08T11:10:29.684Z,6.23
2018-02-08T11:12:57.193Z,6.47
2018-02-08T11:15:24.686Z,6.60
2018-02-08T11:17:52.200Z,5.80
2018-02-08T11:20:19.599Z,6.20
2018-02-08T11:22:46.780Z,6.30
2018-02-08T11:25:14.361Z,5.87
2018-02-08T11:27:41.685Z,6.33
2018-02-08T11:30:08.890Z,6.30
2018-02-08T11:32:36.623Z,5.43
2018-02-08T11:35:03.903Z,5.40
2018-02-08T11:37:31.630Z,6.10
2018-02-08T11:39:58.819Z,5.47
2018-02-08T11:42:26.542Z,5.53
2018-02-08T11:44:53.674Z,6.17
2018-02-08T11:47:21.327Z,8.80
2018-02-08T11:49:48.728Z,7.67
2018-02-08T11:52:16.205Z,6.10
2018-02-08T11:54:43.628Z,9.03
2018-02-08T11:57:10.945Z,7.27
2018-02-08T12:02:05.705Z,6.07
2018-02-08T12:04:33.245Z,7.13
2018-02-08T12:07:00.649Z,6.73
2018-02-08T12:09:28.186Z,6.50
2018-02-08T12:11:55.584Z,6.40
2018-02-08T12:14:22.688Z,6.67
2018-02-08T12:16:50.239Z,5.57
2018-02-08T12:19:17.632Z,6.03
2018-02-08T12:21:45.216Z,6.20
2018-02-08T12:24:12.669Z,5.97
2018-02-08T12:26:39.888Z,5.90
2018-02-08T12:29:07.618Z,6.30
2018-02-08T12:31:34.909Z,6.47
2018-02-08T12:34:02.687Z,5.70
2018-02-08T12:36:30.195Z,5.60
2018-02-08T12:38:57.590Z,6.00
2018-02-08T12:41:24.749Z,5.77
2018-02-08T12:43:52.333Z,5.30
2018-02-08T12:46:19.711Z,5.70
2018-02-08T12:48:47.365Z,5.30
2018-02-08T12:51:14.690Z,5.20
2018-02-08T12:53:42.368Z,4.57
2018-02-08T12:56:09.705Z,4.87
2018-02-08T12:58:37.268Z,5.13
2018-02-08T13:01:04.692Z,5.60
2018-02-08T13:03:32.359Z,5.73
2018-02-08T13:05:59.752Z,5.33
2018-02-08T13:08:27.365Z,4.33
2018-02-08T13:10:54.745Z,4.97
2018-02-08T13:13:22.622Z,5.30
2018-02-08T13:15:50.202Z,4.63
2018-02-08T13:20:45.214Z,4.93
2018-02-08T13:23:12.703Z,5.00
2018-02-08T13:25:40.390Z,4.30
2018-02-08T13:28:07.781Z,4.67
2018-02-08T13:30:35.604Z,4.63
2018-02-08T13:33:02.720Z,4.93
2018-02-08T13:35:30.256Z,4.87
2018-02-08T13:37:57.689Z,4.53
2018-02-08T13:40:25.358Z,4.53
2018-02-08T13:42:52.710Z,4.40
2018-02-08T13:45:20.188Z,4.63
2018-02-08T13:47:47.632Z,4.73
2018-02-08T13:50:14.932Z,4.37
2018-02-08T13:55:09.765Z,4.93
2018-02-08T13:57:37.571Z,4.40
2018-02-08T14:00:04.735Z,4.00
2018-02-08T14:02:32.610Z,3.90
2018-02-08T14:04:59.887Z,4.50
2018-02-08T14:07:27.673Z,4.20
2018-02-08T14:09:55.202Z,4.53
2018-02-08T14:12:22.664Z,4.00
2018-02-08T14:14:50.370Z,3.97
2018-02-08T14:17:17.752Z,4.00
2018-02-08T14:19:45.470Z,3.87
2018-02-08T14:22:12.789Z,3.87
2018-02-08T14:24:40.603Z,3.60
2018-02-08T14:27:07.775Z,4.20
2018-02-08T14:29:35.644Z,3.50
2018-02-08T14:32:02.994Z,3.80
2018-02-08T14:36:58.351Z,3.63
2018-02-08T14:39:25.756Z,3.87
2018-02-08T14:41:53.416Z,3.97
2018-02-08T14:44:20.747Z,3.73
2018-02-08T14:46:48.398Z,3.70
2018-02-08T14:49:15.785Z,3.40
2018-02-08T14:51:43.678Z,3.60
2018-02-08T14:54:11.346Z,3.30
2018-02-08T14:56:38.719Z,3.37
2018-02-08T14:59:06.551Z,3.30
2018-02-08T15:01:33.746Z,3.50
2018-02-08T15:04:01.421Z,3.40
2018-02-08T15:06:28.719Z,3.60
2018-02-08T15:08:56.340Z,3.17
2018-02-08T15:11:23.673Z,3.20
2018-02-08T15:13:51.347Z,3.67
2018-02-08T15:16:18.700Z,3.37
2018-02-08T15:18:46.172Z,3.13
2018-02-08T15:21:13.594Z,3.00
2018-02-08T15:23:40.770Z,3.03
2018-02-08T15:26:08.336Z,3.17
2018-02-08T15:28:35.710Z,3.20
2018-02-08T15:31:03.216Z,3.40
2018-02-08T15:33:30.690Z,3.60
2018-02-08T15:35:58.366Z,2.80
2018-02-08T15:38:25.731Z,2.95
2018-02-08T15:40:53.378Z,3.33
2018-02-08T15:43:20.730Z,2.93
2018-02-08T15:45:48.341Z,4.50
2018-02-08T15:48:15.729Z,4.17
2018-02-08T15:50:43.397Z,3.70
2018-02-08T15:53:10.702Z,4.57
2018-02-08T15:55:37.909Z,5.47
2018-02-08T15:58:05.603Z,4.77
2018-02-08T16:00:32.745Z,4.87
2018-02-08T16:03:00.318Z,4.47
2018-02-08T16:05:27.730Z,4.90
2018-02-08T16:07:55.217Z,5.00
2018-02-08T16:10:22.678Z,5.60
2018-02-08T16:12:50.016Z,6.30
2018-02-08T16:17:44.718Z,5.60
2018-02-08T16:20:12.255Z,4.83
2018-02-08T16:25:06.922Z,5.10
2018-02-08T16:30:01.691Z,4.77
2018-02-08T16:32:29.181Z,4.90
2018-02-08T16:34:56.603Z,4.80
2018-02-08T16:37:23.783Z,5.23
2018-02-08T16:39:51.348Z,4.57
2018-02-08T16:42:18.735Z,4.67
2018-02-08T16:44:46.386Z,5.47
2018-02-08T16:47:13.744Z,5.67
2018-02-08T16:49:41.322Z,6.50
2018-02-08T16:52:08.680Z,5.87
2018-02-08T16:54:36.177Z,5.60
2018-02-08T16:57:03.687Z,5.80
2018-02-08T16:59:31.330Z,13.00
2018-02-08T17:01:58.755Z,13.97
2018-02-08T17:04:26.390Z,10.53
2018-02-08T17:06:53.691Z,12.23
2018-02-08T17:09:21.269Z,13.03
2018-02-08T17:11:48.672Z,14.23
2018-02-08T17:14:16.201Z,14.10
2018-02-08T17:16:43.614Z,12.00
2018-02-08T17:19:10.811Z,10.93
2018-02-08T17:21:38.620Z,9.73
2018-02-08T17:24:06.232Z,9.57
2018-02-08T17:26:33.659Z,9.80
2018-02-08T17:29:01.249Z,9.00
2018-02-08T17:31:28.664Z,9.10
2018-02-08T17:33:56.419Z,9.30
2018-02-08T17:36:23.675Z,8.67
2018-02-08T17:38:50.920Z,9.03
2018-02-08T17:43:45.675Z,9.23
2018-02-08T17:46:12.891Z,9.00
2018-02-08T17:48:40.558Z,8.80
2018-02-08T17:51:07.700Z,8.67
2018-02-08T17:53:35.398Z,8.00
2018-02-08T18:01:09.821Z,7.90
2018-02-08T18:03:37.449Z,8.63
2018-02-08T18:06:04.687Z,8.47
2018-02-08T18:08:31.907Z,7.33
2018-02-08T18:10:59.606Z,8.07
2018-02-08T18:13:26.909Z,7.90
2018-02-08T18:15:54.583Z,8.67
2018-02-08T18:18:21.743Z,8.60
2018-02-08T18:20:49.389Z,12.27
2018-02-08T18:23:16.723Z,15.17
2018-02-08T18:25:44.345Z,14.50
2018-02-08T18:28:11.663Z,14.77
2018-02-08T18:30:39.203Z,12.87
2018-02-08T18:33:06.608Z,11.25
2018-02-08T18:35:33.941Z,10.70
2018-02-08T18:40:28.768Z,10.43
2018-02-08T18:42:56.533Z,9.77
2018-02-08T18:45:23.707Z,10.00
2018-02-08T18:47:51.251Z,9.20
2018-02-08T18:50:18.692Z,9.30
2018-02-08T18:52:46.360Z,8.63
2018-02-08T18:55:13.735Z,8.70
2018-02-08T18:57:41.381Z,9.60
2018-02-08T19:00:08.745Z,8.50
2018-02-08T19:02:36.341Z,8.83
2018-02-08T19:05:03.746Z,8.53
2018-02-08T19:07:31.551Z,8.80
2018-02-08T19:09:58.745Z,7.70
2018-02-08T19:12:26.343Z,7.77
2018-02-08T19:14:53.798Z,8.00
2018-02-08T19:17:21.585Z,8.53
2018-02-08T19:19:48.786Z,7.93
2018-02-08T19:22:16.634Z,8.30
2018-02-08T19:24:43.927Z,8.30
2018-02-08T19:29:39.352Z,8.90
2018-02-08T19:32:06.728Z,8.60
2018-02-08T19:34:34.571Z,8.37
2018-02-08T19:37:01.903Z,8.63
2018-02-08T19:39:29.877Z,8.23
2018-02-08T19:41:57.619Z,8.83
2018-02-08T19:44:24.929Z,8.83
2018-02-08T19:49:19.694Z,8.53
2018-02-08T19:51:47.183Z,8.90
2018-02-08T19:54:14.591Z,8.60
2018-02-08T19:56:41.745Z,8.10
2018-02-08T19:59:09.388Z,8.27
2018-02-08T20:01:36.698Z,8.80
2018-02-08T20:04:04.236Z,8.73
2018-02-08T20:06:31.653Z,11.33
2018-02-08T20:08:58.879Z,14.03
2018-02-08T20:11:26.583Z,15.23
2018-02-08T20:13:53.672Z,17.67
2018-02-08T20:16:21.327Z,19.17
2018-02-08T20:18:48.697Z,22.17
2018-02-08T20:21:16.341Z,23.37
2018-02-08T20:23:43.692Z,18.97
2018-02-08T20:26:11.664Z,18.90
2018-02-08T20:28:39.210Z,19.57
2018-02-08T20:31:06.643Z,19.17
2018-02-08T20:33:33.893Z,19.43
2018-02-08T20:36:01.521Z,19.23
2018-02-08T20:38:28.692Z,20.73
2018-02-08T20:40:55.994Z,20.03
2018-02-08T20:45:50.719Z,19.87
2018-02-08T20:48:18.383Z,22.63
2018-02-08T20:50:45.824Z,23.77
2018-02-08T20:53:13.602Z,21.17
2018-02-08T20:55:40.834Z,23.63
2018-02-08T20:58:08.632Z,20.80
2018-02-08T21:00:35.853Z,20.47
2018-02-08T21:03:03.646Z,22.10
2018-02-08T21:05:31.190Z,21.53
2018-02-08T21:10:26.354Z,22.20
2018-02-08T21:12:53.723Z,21.13
2018-02-08T21:15:21.267Z,22.23
2018-02-08T21:17:48.668Z,20.00
2018-02-08T21:20:16.339Z,20.17
2018-02-08T21:22:43.686Z,19.60
2018-02-08T21:25:11.204Z,17.83
2018-02-08T21:27:38.689Z,17.50
2018-02-08T21:30:06.255Z,16.57
2018-02-08T21:32:33.656Z,17.67
2018-02-08T21:35:01.024Z,17.20
2018-02-08T21:39:55.719Z,17.50
2018-02-08T21:42:23.258Z,19.13
2018-02-08T21:44:50.683Z,18.83
2018-02-08T21:47:18.194Z,17.07
2018-02-08T21:49:45.706Z,17.40
2018-02-08T21:52:13.331Z,16.23
2018-02-08T21:54:40.743Z,16.80
2018-02-08T21:57:08.382Z,17.00
2018-02-08T21:59:35.776Z,22.00
2018-02-08T22:02:03.667Z,20.57
2018-02-08T22:04:31.587Z,18.10
2018-02-08T22:06:58.764Z,17.57
2018-02-08T22:09:26.534Z,17.23
2018-02-08T22:11:53.755Z,16.20
2018-02-08T22:14:21.690Z,17.07
2018-02-08T22:16:49.366Z,16.97
2018-02-08T22:19:16.776Z,16.40
2018-02-08T22:21:44.647Z,16.03
2018-02-08T22:24:12.007Z,16.90
2018-02-08T22:29:07.237Z,17.87
2018-02-08T22:31:34.725Z,19.00
2018-02-08T22:34:02.547Z,20.33
2018-02-08T22:36:29.744Z,17.77
2018-02-08T22:38:57.405Z,15.30
2018-02-08T22:41:24.781Z,15.40
2018-02-08T22:43:52.558Z,15.50
2018-02-08T22:46:19.776Z,15.27
2018-02-08T22:48:47.631Z,15.23
2018-02-08T22:51:14.895Z,15.50
2018-02-08T22:53:42.664Z,16.00
2018-02-08T22:56:10.200Z,14.57
2018-02-08T22:58:37.683Z,14.00
2018-02-08T23:01:05.227Z,14.93
2018-02-08T23:03:32.680Z,14.03
2018-02-08T23:06:00.221Z,14.80
2018-02-08T23:08:27.660Z,14.23
2018-02-08T23:10:55.630Z,14.30
2018-02-08T23:13:22.898Z,13.17
2018-02-08T23:18:17.743Z,13.83
2018-02-08T23:20:45.374Z,13.53
2018-02-08T23:23:12.751Z,18.27
2018-02-08T23:25:40.357Z,17.57
2018-02-08T23:28:07.754Z,16.67
2018-02-08T23:30:35.371Z,16.27
2018-02-08T23:33:02.749Z,15.43
2018-02-08T23:35:30.355Z,16.47
2018-02-08T23:37:57.750Z,15.63
2018-02-08T23:40:25.364Z,15.13
2018-02-08T23:42:52.759Z,13.90
2018-02-08T23:45:20.361Z,14.00
2018-02-08T23:47:47.733Z,14.20
2018-02-08T23:50:15.230Z,13.00
2018-02-08T23:52:42.687Z,12.90
2018-02-08T23:55:10.240Z,13.00
2018-02-08T23:57:37.717Z,13.10
